Terminal Aerodrome Forecast
Issued by NWS

Home | Current Version | Previous Version | Text Only | Print | Product List | Glossary On
Versions: 1 2 3 4 5 6 7 8 9 10 11 12 13 14 15 16 17 18
000
FTUS45 KTFX 050536
TAFHVR
TAF
KHVR 050536Z 0506/0606 34013KT 2SM -SN BR BKN015 OVC025
     FM051000 32011KT P6SM OVC015
     FM051800 31009KT P6SM BKN035=

USA.gov is the U.S. government's official web portal to all federal, state and local government web resources and services.